Time;durP1;ratioP1;P1;durP2;ratioP2;P2;SDS_P1;SDS_P2;PMS_P1;PMS_P2;Temp;Humidity;BMP_temperature;BMP_pressure;BME280_temperature;BME280_humidity;BME280_pressure;Samples;Min_cycle;Max_cycle;Signal;HPM_P1;HPM_P2
2022/01/25 00:16:10;;;;;;;19.27;14.50;;;6.00;99.90;;;;;;5031914;28;20036;-58
2022/01/25 00:27:53;;;;;;;20.13;14.27;;;5.70;99.90;;;;;;5051130;28;20059;-59
2022/01/25 00:30:58;;;;;;;18.55;14.13;;;5.70;99.90;;;;;;5046662;28;20024;-56
2022/01/25 00:33:48;;;;;;;21.48;15.10;;;5.60;99.90;;;;;;5055009;28;20443;-56
2022/01/25 00:36:32;;;;;;;25.02;16.80;;;5.60;99.90;;;;;;5056105;28;20039;-60
2022/01/25 00:39:16;;;;;;;21.47;15.60;;;5.60;99.90;;;;;;5053110;28;20047;-57
2022/01/25 00:42:00;;;;;;;20.10;15.07;;;5.50;99.90;;;;;;5055137;28;20059;-59
2022/01/25 00:44:48;;;;;;;20.60;15.52;;;5.50;99.90;;;;;;5060152;28;20095;-56
2022/01/25 00:47:32;;;;;;;20.05;14.68;;;5.50;99.90;;;;;;5064182;28;20139;-55
2022/01/25 00:50:16;;;;;;;21.20;15.45;;;5.50;99.90;;;;;;5061218;28;20091;-57
2022/01/25 00:55:45;;;;;;;19.60;14.75;;;5.70;99.90;;;;;;5064342;28;20121;-59
2022/01/25 00:58:29;;;;;;;19.88;14.68;;;5.90;99.90;;;;;;5064105;28;20059;-56
2022/01/25 01:01:13;;;;;;;19.65;14.63;;;5.90;99.90;;;;;;5063906;28;20108;-58
2022/01/25 01:03:57;;;;;;;20.02;14.43;;;5.90;99.90;;;;;;5060596;28;20104;-58
2022/01/25 01:06:43;;;;;;;18.30;14.38;;;5.90;99.90;;;;;;5062921;28;20036;-58
2022/01/25 01:09:30;;;;;;;18.85;14.23;;;5.80;99.90;;;;;;5064841;28;20452;-59
2022/01/25 01:42:16;;;;;;;18.70;13.75;;;5.80;99.90;;;;;;5053786;28;20121;-58
2022/01/25 01:47:49;;;;;;;19.88;13.75;;;5.60;99.90;;;;;;5053246;28;20160;-56
2022/01/25 01:50:36;;;;;;;20.63;14.60;;;5.70;99.90;;;;;;5054078;28;20096;-58
2022/01/25 01:53:20;;;;;;;21.83;15.63;;;5.60;99.90;;;;;;5053633;28;20074;-57
2022/01/25 01:56:04;;;;;;;20.17;15.20;;;5.60;99.90;;;;;;5053391;28;20071;-56
2022/01/25 01:58:51;;;;;;;21.63;15.60;;;5.50;99.90;;;;;;5053456;28;20035;-55
2022/01/25 02:01:37;;;;;;;22.83;15.63;;;5.60;99.90;;;;;;5053315;28;20036;-56
2022/01/25 02:04:21;;;;;;;23.67;15.80;;;5.60;99.90;;;;;;5052926;28;20523;-55
2022/01/25 02:07:05;;;;;;;22.13;15.57;;;5.70;99.90;;;;;;5053286;28;20048;-56
2022/01/25 02:09:49;;;;;;;23.50;17.05;;;5.60;99.90;;;;;;5053032;28;20400;-54
2022/01/25 02:12:34;;;;;;;21.00;15.93;;;5.50;99.90;;;;;;5052719;28;20036;-56
2022/01/25 02:15:20;;;;;;;24.38;15.68;;;5.50;99.90;;;;;;5052966;28;20404;-55
2022/01/25 02:24:11;;;;;;;22.95;15.55;;;5.60;99.90;;;;;;5032385;28;20072;-59
2022/01/25 02:26:57;;;;;;;25.60;17.30;;;5.60;99.90;;;;;;5031749;28;20049;-59
2022/01/25 02:29:41;;;;;;;21.65;16.08;;;5.40;99.90;;;;;;5032971;28;20032;-57
2022/01/25 02:32:25;;;;;;;25.58;17.13;;;5.40;99.90;;;;;;5033325;28;20107;-56
2022/01/25 02:35:10;;;;;;;24.80;16.97;;;5.30;99.90;;;;;;5046108;28;20035;-57
2022/01/25 02:37:54;;;;;;;23.60;16.25;;;5.30;99.90;;;;;;5052813;28;20044;-58
2022/01/25 02:40:38;;;;;;;24.80;17.10;;;5.50;99.90;;;;;;5053001;28;20079;-54
2022/01/25 02:43:23;;;;;;;25.50;16.77;;;5.40;99.90;;;;;;5052470;28;20039;-58
2022/01/25 02:49:01;;;;;;;22.90;16.15;;;5.60;99.90;;;;;;5052691;28;20059;-57
2022/01/25 02:51:48;;;;;;;22.15;15.88;;;5.60;99.90;;;;;;5052288;28;20464;-59
2022/01/25 02:54:32;;;;;;;21.95;17.20;;;5.60;99.90;;;;;;5052313;28;20032;-55
2022/01/25 02:57:17;;;;;;;24.80;16.40;;;5.50;99.90;;;;;;5052749;28;20124;-56
2022/01/25 03:00:07;;;;;;;21.38;15.65;;;5.40;99.90;;;;;;5052716;28;20036;-58
2022/01/25 03:02:52;;;;;;;23.70;16.25;;;5.40;99.90;;;;;;5052485;28;20071;-55
2022/01/25 03:05:36;;;;;;;22.23;16.00;;;5.40;99.90;;;;;;5053186;28;20040;-57
2022/01/25 03:08:20;;;;;;;22.25;16.33;;;5.30;99.90;;;;;;5052607;28;20117;-58
2022/01/25 03:11:04;;;;;;;24.80;17.45;;;5.40;99.90;;;;;;5052482;28;20040;-55
2022/01/25 03:13:52;;;;;;;25.20;16.87;;;5.30;99.90;;;;;;5052579;28;20039;-55
2022/01/25 03:16:45;;;;;;;26.85;17.20;;;5.40;99.90;;;;;;5052912;28;20079;-58
2022/01/25 03:22:43;;;;;;;23.10;16.98;;;5.40;99.90;;;;;;5064012;28;20028;-56
2022/01/25 03:25:26;;;;;;;22.88;17.52;;;5.30;99.90;;;;;;5052686;28;20535;-58
2022/01/25 03:28:10;;;;;;;22.77;16.65;;;5.20;99.90;;;;;;5052968;28;20040;-56
2022/01/25 03:30:54;;;;;;;24.85;16.60;;;5.20;99.90;;;;;;5053760;28;20043;-58
2022/01/25 03:33:38;;;;;;;26.52;18.20;;;5.20;99.90;;;;;;5052754;28;20475;-58
2022/01/25 03:36:22;;;;;;;24.92;17.67;;;5.20;99.90;;;;;;5053900;28;20106;-57
2022/01/25 03:39:06;;;;;;;21.90;16.35;;;5.30;99.90;;;;;;5054277;28;20404;-57
2022/01/25 03:41:50;;;;;;;19.43;15.23;;;5.50;99.90;;;;;;5054849;28;20511;-55
2022/01/25 03:44:35;;;;;;;22.98;17.10;;;5.50;99.90;;;;;;5054644;28;20036;-57
2022/01/25 03:47:29;;;;;;;23.13;16.53;;;5.60;99.90;;;;;;5066267;28;20032;-55
2022/01/25 03:50:13;;;;;;;23.38;16.42;;;5.40;99.90;;;;;;5051939;28;20623;-55
2022/01/25 03:52:57;;;;;;;21.92;16.60;;;5.40;99.90;;;;;;5046251;28;20045;-60
2022/01/25 03:55:44;;;;;;;26.20;16.40;;;5.30;99.90;;;;;;5051889;28;20082;-55
2022/01/25 03:58:29;;;;;;;24.88;18.00;;;5.30;99.90;;;;;;5050929;28;20112;-58
2022/01/25 04:01:13;;;;;;;24.13;17.42;;;5.10;99.90;;;;;;5051921;28;20029;-58
2022/01/25 04:04:01;;;;;;;24.17;17.60;;;5.10;99.90;;;;;;5054932;28;20094;-56
2022/01/25 04:06:51;;;;;;;20.92;15.77;;;5.40;99.90;;;;;;5055560;28;20040;-59
2022/01/25 04:09:37;;;;;;;19.98;15.57;;;5.50;99.90;;;;;;5055138;28;20102;-56
2022/01/25 04:12:21;;;;;;;21.65;15.27;;;5.60;99.90;;;;;;5055495;28;20044;-61
2022/01/25 04:15:05;;;;;;;22.52;15.18;;;5.60;99.90;;;;;;5040593;28;20040;-58
2022/01/25 04:17:58;;;;;;;20.88;14.90;;;5.50;99.90;;;;;;5054424;28;20373;-61
2022/01/25 04:20:54;;;;;;;21.42;15.85;;;5.50;99.90;;;;;;5055590;28;20060;-59
2022/01/25 04:26:41;;;;;;;19.60;13.00;;;5.30;99.90;;;;;;5035128;28;20040;-59
2022/01/25 04:29:26;;;;;;;22.05;15.68;;;5.20;99.90;;;;;;5036451;28;20040;-58
2022/01/25 04:32:13;;;;;;;20.13;14.65;;;5.10;99.90;;;;;;5035490;28;20072;-58
2022/01/25 04:35:10;;;;;;;21.30;14.82;;;5.00;99.90;;;;;;5045304;28;20143;-57
2022/01/25 04:50:18;;;;;;;19.42;12.63;;;5.40;99.90;;;;;;5054941;28;20086;-60
2022/01/25 04:56:09;;;;;;;18.70;12.88;;;5.30;99.90;;;;;;5054747;28;20070;-59
2022/01/25 04:59:08;;;;;;;20.05;13.68;;;5.20;99.90;;;;;;5067807;28;20032;-62
2022/01/25 05:01:59;;;;;;;18.25;13.43;;;5.10;99.90;;;;;;5054410;28;20736;-58
2022/01/25 05:04:53;;;;;;;21.40;13.60;;;5.10;99.90;;;;;;5054437;28;20071;-59
2022/01/25 05:10:23;;;;;;;;;;;5.00;99.90;;;;;;5054622;28;20400;-61
2022/01/25 05:13:19;;;;;;;21.38;12.80;;;5.00;99.90;;;;;;5054449;28;19916;-60
2022/01/25 05:16:48;;;;;;;21.20;14.52;;;5.00;99.90;;;;;;5048403;28;20516;-59
2022/01/25 05:22:06;;;;;;;18.20;13.07;;;5.20;99.90;;;;;;5051234;28;20028;-61
2022/01/25 05:24:52;;;;;;;19.08;13.73;;;5.20;99.90;;;;;;5033810;28;20432;-60
2022/01/25 05:27:37;;;;;;;23.08;14.75;;;5.00;99.90;;;;;;5033751;28;20505;-59
2022/01/25 05:30:21;;;;;;;23.77;15.20;;;4.80;99.90;;;;;;5034319;28;20040;-60
2022/01/25 05:33:08;;;;;;;19.20;14.37;;;4.80;99.90;;;;;;5032583;28;20114;-60
2022/01/25 05:35:52;;;;;;;22.17;14.63;;;5.00;99.90;;;;;;5052466;28;20483;-59
2022/01/25 05:38:39;;;;;;;21.48;15.63;;;4.90;99.90;;;;;;5053702;28;20079;-61
2022/01/25 05:41:28;;;;;;;22.58;14.63;;;5.00;99.90;;;;;;5066795;28;20544;-60
2022/01/25 05:49:43;;;;;;;24.10;14.40;;;5.10;99.90;;;;;;5053176;28;20593;-58
2022/01/25 05:52:28;;;;;;;19.63;13.60;;;5.00;99.90;;;;;;5044900;28;20115;-59
2022/01/25 05:55:12;;;;;;;21.58;14.05;;;5.00;99.90;;;;;;5053843;28;20109;-62
2022/01/25 05:57:56;;;;;;;24.05;14.98;;;4.90;99.90;;;;;;5053400;28;20043;-59
2022/01/25 06:00:40;;;;;;;22.17;14.73;;;4.80;99.90;;;;;;5053566;28;20051;-60
2022/01/25 06:03:24;;;;;;;22.35;13.65;;;4.80;99.90;;;;;;5052430;28;20051;-60
2022/01/25 06:06:08;;;;;;;22.42;14.52;;;4.80;99.90;;;;;;5053054;28;20137;-60
2022/01/25 06:08:54;;;;;;;20.40;14.00;;;4.80;99.90;;;;;;5052191;28;20101;-60
2022/01/25 06:11:39;;;;;;;21.88;13.77;;;4.80;99.90;;;;;;5052964;28;20033;-60
2022/01/25 06:14:23;;;;;;;21.83;14.25;;;4.80;99.90;;;;;;5052160;28;20075;-60
2022/01/25 06:17:10;;;;;;;22.42;13.80;;;4.70;99.90;;;;;;5053385;28;20669;-59
2022/01/25 06:19:54;;;;;;;20.35;13.38;;;4.60;99.90;;;;;;5052026;28;20152;-58
2022/01/25 06:22:38;;;;;;;20.83;13.70;;;4.50;99.90;;;;;;5044511;28;20032;-60
2022/01/25 06:25:23;;;;;;;20.50;14.13;;;4.40;99.90;;;;;;5041500;28;20063;-60
2022/01/25 06:28:07;;;;;;;25.17;15.88;;;4.70;99.90;;;;;;5044938;28;20032;-59
2022/01/25 06:30:52;;;;;;;18.85;12.15;;;4.80;99.90;;;;;;5053907;28;20082;-58
2022/01/25 06:33:40;;;;;;;18.15;12.38;;;4.80;99.90;;;;;;5052786;28;20503;-61
2022/01/25 06:36:25;;;;;;;18.10;13.00;;;4.80;99.90;;;;;;5051987;28;20059;-60
2022/01/25 06:39:09;;;;;;;19.43;12.97;;;4.60;99.90;;;;;;5053744;28;20040;-59
2022/01/25 06:41:53;;;;;;;18.98;12.38;;;4.70;99.90;;;;;;5053026;28;20115;-60
2022/01/25 06:44:38;;;;;;;19.73;13.10;;;4.80;99.90;;;;;;5052749;28;20036;-61
2022/01/25 06:47:22;;;;;;;21.38;12.43;;;4.80;99.90;;;;;;5052189;28;20094;-60
2022/01/25 06:50:06;;;;;;;18.45;12.70;;;4.90;99.90;;;;;;5043284;28;20117;-58
2022/01/25 06:52:51;;;;;;;19.88;11.82;;;4.90;99.90;;;;;;5032283;28;20033;-60
2022/01/25 06:55:36;;;;;;;17.70;11.55;;;4.90;99.90;;;;;;5032608;28;20072;-61
2022/01/25 06:58:20;;;;;;;17.25;11.00;;;4.70;99.90;;;;;;5032633;28;20413;-59
2022/01/25 07:01:05;;;;;;;;;;;4.80;99.90;;;;;;5039072;28;20094;-61
2022/01/25 07:03:49;;;;;;;24.92;12.27;;;4.80;99.90;;;;;;5036356;28;19962;-60
2022/01/25 07:06:33;;;;;;;18.98;12.13;;;4.80;99.90;;;;;;5052192;28;20067;-59
2022/01/25 07:09:16;;;;;;;22.90;14.20;;;4.90;99.90;;;;;;5052409;28;20503;-62
2022/01/25 07:12:00;;;;;;;25.30;15.48;;;4.80;99.90;;;;;;5052404;28;20056;-59
2022/01/25 07:14:45;;;;;;;28.17;17.30;;;4.90;99.90;;;;;;5052449;28;20097;-61
2022/01/25 07:17:28;;;;;;;24.85;16.92;;;5.00;99.90;;;;;;5051973;28;20048;-61
2022/01/25 07:20:12;;;;;;;25.65;16.23;;;5.00;99.90;;;;;;5052222;28;20099;-58
2022/01/25 07:22:56;;;;;;;24.58;16.23;;;5.00;99.90;;;;;;5041079;28;20103;-61
2022/01/25 07:25:41;;;;;;;24.65;16.20;;;5.10;99.90;;;;;;5032668;28;20044;-61
2022/01/25 07:28:25;;;;;;;26.50;16.88;;;5.20;99.90;;;;;;5033058;28;20452;-60
2022/01/25 07:31:09;;;;;;;24.13;15.30;;;5.20;99.90;;;;;;5033204;28;20403;-61
2022/01/25 07:33:53;;;;;;;23.52;15.98;;;5.10;99.90;;;;;;5034820;28;20052;-59
2022/01/25 07:36:39;;;;;;;26.63;14.77;;;5.10;99.90;;;;;;5053180;28;20055;-56
2022/01/25 07:39:26;;;;;;;26.85;18.05;;;5.10;99.90;;;;;;5047851;28;20028;-60
2022/01/25 07:42:11;;;;;;;27.75;18.00;;;5.00;99.90;;;;;;5035935;28;20090;-63
2022/01/25 07:44:56;;;;;;;26.75;17.52;;;5.00;99.90;;;;;;5036524;28;20056;-60
2022/01/25 07:47:40;;;;;;;32.58;18.50;;;4.90;99.90;;;;;;5039504;28;20080;-59
2022/01/25 07:50:24;;;;;;;25.02;16.85;;;4.90;99.90;;;;;;5060084;28;20657;-59
2022/01/25 07:53:08;;;;;;;27.35;17.05;;;5.00;99.90;;;;;;5063450;28;20080;-62
2022/01/25 07:55:52;;;;;;;30.90;18.20;;;5.00;99.90;;;;;;5062608;28;20024;-59
2022/01/25 07:58:37;;;;;;;27.45;18.52;;;4.80;99.90;;;;;;5059027;28;20044;-59
2022/01/25 08:01:21;;;;;;;29.40;17.95;;;4.90;99.90;;;;;;5055506;28;20550;-59
2022/01/25 08:04:05;;;;;;;27.90;18.13;;;4.70;99.90;;;;;;5055683;28;20135;-60
2022/01/25 08:06:49;;;;;;;29.13;18.70;;;4.60;99.90;;;;;;5055185;28;20554;-63
2022/01/25 08:09:33;;;;;;;27.55;17.95;;;4.70;99.90;;;;;;5052226;28;20080;-60
2022/01/25 08:12:17;;;;;;;26.90;17.10;;;4.90;99.90;;;;;;5035359;28;20028;-59
2022/01/25 08:15:04;;;;;;;24.43;16.90;;;4.90;99.90;;;;;;5041213;28;20035;-62
2022/01/25 08:17:49;;;;;;;21.92;15.93;;;4.90;99.90;;;;;;5053659;28;20120;-58
2022/01/25 08:20:33;;;;;;;23.00;15.82;;;4.80;99.90;;;;;;5043539;28;20060;-56
2022/01/25 08:23:17;;;;;;;23.85;16.23;;;4.90;99.90;;;;;;5046831;28;20515;-60
2022/01/25 08:26:02;;;;;;;27.25;15.23;;;4.80;99.90;;;;;;5054336;28;20399;-61
2022/01/25 08:28:46;;;;;;;23.30;16.88;;;4.60;99.90;;;;;;5053868;28;20079;-62
2022/01/25 08:31:32;;;;;;;28.10;16.77;;;4.50;99.90;;;;;;5043581;28;20040;-64
2022/01/25 08:34:17;;;;;;;28.77;16.85;;;4.50;99.90;;;;;;5045942;28;20154;-60
2022/01/25 08:37:00;;;;;;;25.05;17.35;;;4.70;99.90;;;;;;5054500;28;20117;-61
2022/01/25 08:39:44;;;;;;;27.45;17.83;;;4.70;99.90;;;;;;5035173;28;20040;-60
2022/01/25 08:42:28;;;;;;;25.45;17.85;;;4.90;99.90;;;;;;5033627;28;20068;-60
2022/01/25 08:45:12;;;;;;;27.45;17.17;;;4.70;99.90;;;;;;5034369;28;20064;-63
2022/01/25 08:47:59;;;;;;;22.35;16.00;;;4.60;99.90;;;;;;5034219;28;20040;-66
2022/01/25 08:50:43;;;;;;;27.73;18.02;;;4.50;99.90;;;;;;5049829;28;20619;-61
2022/01/25 08:53:28;;;;;;;29.52;18.38;;;4.60;99.90;;;;;;5050920;28;20067;-64
2022/01/25 08:56:12;;;;;;;25.45;16.70;;;4.70;99.90;;;;;;5054691;28;20091;-57
2022/01/25 08:58:59;;;;;;;23.35;16.40;;;4.60;99.90;;;;;;5054519;28;20040;-59
2022/01/25 09:01:46;;;;;;;25.30;16.70;;;4.60;99.90;;;;;;5052021;28;20569;-60
2022/01/25 09:04:31;;;;;;;23.75;17.17;;;4.70;99.90;;;;;;5054237;28;20040;-61
2022/01/25 09:07:14;;;;;;;26.73;18.63;;;4.80;99.90;;;;;;5054062;28;20113;-63
2022/01/25 09:09:59;;;;;;;28.90;19.10;;;4.70;99.90;;;;;;5054389;28;20033;-58
2022/01/25 09:12:43;;;;;;;29.88;20.92;;;4.60;99.90;;;;;;5055956;28;20032;-60
2022/01/25 09:15:27;;;;;;;31.83;20.80;;;4.70;99.90;;;;;;5054455;28;20058;-62
2022/01/25 09:18:12;;;;;;;29.45;21.33;;;4.60;99.90;;;;;;5054161;28;20400;-64
2022/01/25 09:20:57;;;;;;;35.05;22.85;;;4.70;99.90;;;;;;5034465;28;20134;-63
2022/01/25 09:23:44;;;;;;;32.83;22.55;;;4.60;99.90;;;;;;5054251;28;20044;-58
2022/01/25 09:26:28;;;;;;;36.53;24.20;;;4.70;99.90;;;;;;5054223;28;20036;-64
2022/01/25 09:29:13;;;;;;;34.85;23.92;;;4.60;99.90;;;;;;5054417;28;20060;-60
2022/01/25 09:31:57;;;;;;;42.33;24.63;;;4.60;99.90;;;;;;5053309;28;20400;-64
2022/01/25 09:34:41;;;;;;;34.75;23.70;;;4.60;99.90;;;;;;5053484;28;20103;-63
2022/01/25 09:37:25;;;;;;;36.85;24.05;;;4.50;99.90;;;;;;5054035;28;20103;-60
2022/01/25 09:40:11;;;;;;;37.57;25.20;;;4.60;99.90;;;;;;5054204;28;20036;-63
2022/01/25 09:42:57;;;;;;;35.17;23.33;;;4.80;99.90;;;;;;5051442;28;20072;-63
2022/01/25 09:45:41;;;;;;;36.97;24.08;;;4.80;99.90;;;;;;5046713;28;20040;-63
2022/01/25 09:48:26;;;;;;;37.85;24.30;;;4.60;99.90;;;;;;5054097;28;20108;-63
2022/01/25 09:51:10;;;;;;;40.72;26.67;;;4.60;99.90;;;;;;5053388;28;20048;-59
2022/01/25 09:53:55;;;;;;;46.03;28.25;;;4.60;99.90;;;;;;5054513;28;20040;-62
2022/01/25 09:56:39;;;;;;;48.58;27.65;;;4.70;99.90;;;;;;5054203;28;20140;-62
2022/01/25 09:59:30;;;;;;;47.63;27.50;;;4.70;99.90;;;;;;5035928;28;20047;-61
2022/01/25 10:02:58;;;;;;;49.10;29.92;;;4.70;99.90;;;;;;5052206;28;20114;-65
2022/01/25 10:05:45;;;;;;;48.95;27.60;;;4.50;99.90;;;;;;5062435;28;20101;-64
2022/01/25 10:09:12;;;;;;;53.95;29.15;;;4.70;99.90;;;;;;5058474;28;20531;-63
2022/01/25 10:11:57;;;;;;;47.88;27.48;;;4.70;99.90;;;;;;5039783;28;20039;-63
2022/01/25 10:15:02;;;;;;;49.70;29.17;;;4.70;99.90;;;;;;5058945;28;20040;-61
2022/01/25 10:17:46;;;;;;;46.75;26.92;;;4.60;99.90;;;;;;5059468;28;20031;-60
2022/01/25 10:20:43;;;;;;;53.35;29.05;;;4.70;99.90;;;;;;5056331;28;20085;-60
2022/01/25 10:23:35;;;;;;;57.25;29.92;;;4.60;99.90;;;;;;5088317;27;20405;-61
2022/01/25 10:26:23;;;;;;;51.92;29.65;;;4.60;99.90;;;;;;5084269;28;20027;-59
2022/01/25 10:29:08;;;;;;;50.45;28.95;;;4.70;99.90;;;;;;5067097;28;20027;-63
2022/01/25 10:31:58;;;;;;;52.05;28.50;;;4.80;99.90;;;;;;5086196;28;20082;-62
2022/01/25 10:34:47;;;;;;;51.17;27.77;;;4.80;99.90;;;;;;5065816;28;20028;-63
2022/01/25 10:37:31;;;;;;;56.10;29.17;;;4.80;99.90;;;;;;5067993;28;20039;-62
2022/01/25 10:40:15;;;;;;;48.50;25.80;;;4.80;99.90;;;;;;5056550;28;20296;-57
2022/01/25 10:42:59;;;;;;;49.47;27.05;;;4.80;99.90;;;;;;5069611;28;20098;-57
2022/01/25 10:45:44;;;;;;;46.63;25.77;;;4.70;99.90;;;;;;5060579;28;20090;-59
2022/01/25 10:48:31;;;;;;;46.00;26.88;;;4.70;99.90;;;;;;5072165;28;20096;-61
2022/01/25 10:51:26;;;;;;;48.80;29.08;;;4.60;99.90;;;;;;5064473;28;20112;-62
2022/01/25 10:54:24;;;;;;;52.15;28.13;;;4.70;99.90;;;;;;5064367;28;20364;-61
2022/01/25 10:57:19;;;;;;;49.95;27.70;;;4.50;99.90;;;;;;5067141;28;20067;-60
2022/01/25 11:00:10;;;;;;;48.45;25.95;;;4.60;99.90;;;;;;5069296;28;20036;-63
2022/01/25 11:02:55;;;;;;;45.63;26.58;;;4.50;99.90;;;;;;5067803;28;20032;-64
2022/01/25 11:05:43;;;;;;;53.47;28.90;;;4.70;99.90;;;;;;5067930;28;20036;-62
2022/01/25 11:08:28;;;;;;;52.03;27.30;;;4.50;99.90;;;;;;5067719;28;20040;-60
2022/01/25 11:11:29;;;;;;;50.75;27.10;;;4.50;99.90;;;;;;5068682;28;20044;-62
2022/01/25 11:17:18;;;;;;;53.88;27.38;;;4.50;99.90;;;;;;5068217;28;20067;-62
2022/01/25 11:20:03;;;;;;;;;;;4.60;99.90;;;;;;5069141;28;20111;-64
2022/01/25 11:22:48;;;;;;;47.22;25.80;;;4.50;99.90;;;;;;5075403;28;20003;-61
2022/01/25 11:25:33;;;;;;;52.55;29.20;;;4.50;99.90;;;;;;5088694;28;20035;-63
2022/01/25 11:28:17;;;;;;;51.33;28.42;;;4.50;99.90;;;;;;5087105;28;20050;-63
2022/01/25 11:31:06;;;;;;;53.85;29.20;;;4.60;99.90;;;;;;5088108;28;20462;-61
2022/01/25 11:33:53;;;;;;;50.67;25.92;;;4.50;99.90;;;;;;5078732;28;20523;-59
2022/01/25 11:36:56;;;;;;;53.20;27.90;;;4.70;99.90;;;;;;5055137;28;20078;-61
2022/01/25 11:39:45;;;;;;;47.40;26.27;;;4.70;99.90;;;;;;5055081;28;20036;-64
2022/01/25 11:42:36;;;;;;;47.35;26.85;;;4.70;99.90;;;;;;5054509;28;20036;-63
2022/01/25 11:45:26;;;;;;;49.50;27.50;;;4.70;99.90;;;;;;5053730;28;20036;-62
2022/01/25 11:48:10;;;;;;;51.63;26.63;;;4.70;99.90;;;;;;5054895;28;20566;-63
2022/01/25 11:50:55;;;;;;;51.33;28.02;;;4.60;99.90;;;;;;5053477;28;20095;-61
2022/01/25 11:53:42;;;;;;;47.83;25.40;;;4.70;99.90;;;;;;5053878;28;20039;-63
2022/01/25 11:56:26;;;;;;;46.80;25.10;;;4.60;99.90;;;;;;5056077;28;20105;-64
2022/01/25 11:59:13;;;;;;;44.70;24.77;;;4.60;99.90;;;;;;5055274;28;20503;-62
2022/01/25 12:01:58;;;;;;;50.08;26.55;;;4.40;99.90;;;;;;5055670;28;20040;-60
2022/01/25 12:04:45;;;;;;;46.22;24.60;;;4.50;99.90;;;;;;5055841;28;20114;-62
2022/01/25 12:07:36;;;;;;;50.45;26.35;;;4.50;99.90;;;;;;5055184;28;20341;-58
2022/01/25 12:10:35;;;;;;;49.22;26.60;;;4.60;99.90;;;;;;5054617;28;20132;-61
2022/01/25 12:13:27;;;;;;;49.75;26.00;;;4.70;99.90;;;;;;5053916;28;20040;-64
2022/01/25 12:16:29;;;;;;;49.15;26.77;;;4.40;99.90;;;;;;5054934;28;20036;-63
2022/01/25 12:19:15;;;;;;;48.63;25.38;;;4.50;99.90;;;;;;5054191;28;20040;-64
2022/01/25 12:21:52;;;;;;;45.45;25.27;;;4.50;99.90;;;;;;5052698;28;20431;-58
2022/01/25 12:24:21;;;;;;;48.22;26.38;;;4.60;99.90;;;;;;5033991;28;20030;-61
2022/01/25 12:27:00;;;;;;;54.45;28.48;;;4.50;99.90;;;;;;5033936;28;20036;-60
2022/01/25 12:29:34;;;;;;;46.95;26.38;;;4.50;99.90;;;;;;5032813;28;20505;-63
2022/01/25 12:32:33;;;;;;;54.10;27.35;;;4.50;99.90;;;;;;5033735;28;20041;-59
2022/01/25 12:35:01;;;;;;;55.15;27.80;;;4.50;99.90;;;;;;5044603;28;20033;-63
2022/01/25 12:37:55;;;;;;;54.17;27.15;;;4.50;99.90;;;;;;5053691;28;20037;-61
2022/01/25 12:40:28;;;;;;;56.50;28.13;;;4.40;99.90;;;;;;5053748;28;20393;-61
2022/01/25 12:43:05;;;;;;;58.97;29.45;;;4.40;99.90;;;;;;5051795;28;20021;-62
2022/01/25 12:45:34;;;;;;;54.33;28.40;;;4.40;99.90;;;;;;5052610;28;20098;-63
2022/01/25 12:48:03;;;;;;;58.47;28.85;;;4.40;99.90;;;;;;5053649;28;20078;-61
2022/01/25 12:50:29;;;;;;;51.90;27.48;;;4.50;99.90;;;;;;5052077;28;20049;-61
2022/01/25 12:52:58;;;;;;;57.10;27.40;;;4.60;99.90;;;;;;5052016;28;20029;-60
2022/01/25 12:55:27;;;;;;;52.03;26.85;;;4.50;99.90;;;;;;5053933;28;20048;-60
2022/01/25 12:57:54;;;;;;;55.33;26.13;;;4.30;99.90;;;;;;5053724;28;20033;-60
2022/01/25 13:00:22;;;;;;;51.17;26.88;;;4.40;99.90;;;;;;5052304;28;20090;-62
2022/01/25 13:02:48;;;;;;;53.65;27.15;;;4.50;99.90;;;;;;5053060;28;20029;-61
2022/01/25 13:05:19;;;;;;;50.67;26.75;;;4.50;99.90;;;;;;5053761;28;20170;-62
2022/01/25 13:07:45;;;;;;;54.90;27.65;;;4.50;99.90;;;;;;5052941;28;20078;-61
2022/01/25 13:10:22;;;;;;;54.20;27.27;;;4.60;99.90;;;;;;5053360;28;20119;-60
2022/01/25 13:12:56;;;;;;;53.95;27.88;;;4.70;99.90;;;;;;5052731;28;20039;-62
2022/01/25 13:16:13;;;;;;;;;;;4.70;99.90;;;;;;5053544;28;20031;-62
2022/01/25 13:18:20;;;;;;;48.83;24.00;;;4.70;99.90;;;;;;5048956;28;19913;-61
2022/01/25 13:21:02;;;;;;;52.10;24.98;;;4.50;99.90;;;;;;5052754;28;20048;-61
2022/01/25 13:23:28;;;;;;;50.75;26.42;;;4.50;99.90;;;;;;5051335;28;20043;-58
2022/01/25 13:26:14;;;;;;;53.47;26.73;;;4.40;99.90;;;;;;5053344;28;20119;-61
2022/01/25 13:31:17;;;;;;;54.10;27.20;;;4.40;99.90;;;;;;5052925;28;20033;-62
2022/01/25 13:33:43;;;;;;;56.42;27.40;;;4.30;99.90;;;;;;5052348;28;20029;-61
2022/01/25 13:36:14;;;;;;;54.53;25.77;;;4.30;99.90;;;;;;5051756;28;20508;-59
2022/01/25 13:38:41;;;;;;;53.35;26.30;;;4.40;99.90;;;;;;5052212;28;20108;-62
2022/01/25 13:46:12;;;;;;;55.95;27.60;;;4.60;99.90;;;;;;5051749;28;20115;-62
2022/01/25 13:48:39;;;;;;;52.55;25.95;;;4.60;99.90;;;;;;5051471;28;20120;-60
2022/01/25 13:51:10;;;;;;;53.08;26.65;;;4.80;99.90;;;;;;5051849;28;20485;-61
2022/01/25 13:53:37;;;;;;;57.47;28.55;;;4.60;99.90;;;;;;5051730;28;20056;-61
2022/01/25 13:56:06;;;;;;;56.53;28.77;;;4.50;99.90;;;;;;5051367;28;20033;-61
2022/01/25 13:58:40;;;;;;;50.00;25.02;;;4.50;99.90;;;;;;5051737;28;20131;-59
2022/01/25 14:01:09;;;;;;;44.90;24.60;;;4.50;99.90;;;;;;5050400;28;20544;-61
2022/01/25 14:03:45;;;;;;;48.42;26.58;;;4.50;99.90;;;;;;5051308;28;20052;-62
2022/01/25 14:06:47;;;;;;;50.83;26.98;;;4.70;99.90;;;;;;5052022;28;20393;-59
2022/01/25 14:09:20;;;;;;;52.05;28.55;;;4.50;99.90;;;;;;5037457;28;20480;-61
2022/01/25 14:22:54;;;;;;;59.55;27.92;;;4.40;99.90;;;;;;5057661;28;20464;-60
2022/01/25 14:25:30;;;;;;;52.30;28.15;;;4.50;99.90;;;;;;5070731;28;20032;-61
2022/01/25 14:27:58;;;;;;;55.65;28.02;;;4.70;99.90;;;;;;5057502;28;20036;-59
2022/01/25 14:30:23;;;;;;;55.60;27.33;;;4.60;99.90;;;;;;5033986;28;20036;-56
2022/01/25 14:33:02;;;;;;;59.50;30.20;;;4.50;99.90;;;;;;5031359;28;20037;-58
2022/01/25 14:35:30;;;;;;;56.55;27.52;;;4.60;99.90;;;;;;5060481;28;20033;-57
2022/01/25 14:37:57;;;;;;;56.95;29.05;;;4.50;99.90;;;;;;5050118;28;20045;-57
2022/01/25 14:40:22;;;;;;;60.15;30.02;;;4.40;99.90;;;;;;5051113;28;20102;-60
2022/01/25 14:42:48;;;;;;;59.13;29.70;;;4.50;99.90;;;;;;5050685;28;20037;-59
2022/01/25 14:45:22;;;;;;;59.17;28.73;;;4.50;99.90;;;;;;5050759;28;20043;-60
2022/01/25 14:47:50;;;;;;;57.67;28.60;;;4.30;99.90;;;;;;5050951;28;20112;-59
2022/01/25 14:50:33;;;;;;;61.28;29.58;;;4.40;99.90;;;;;;5051114;28;20064;-58
2022/01/25 14:53:12;;;;;;;57.83;28.63;;;4.50;99.90;;;;;;5050877;28;20033;-61
2022/01/25 14:55:40;;;;;;;55.85;28.90;;;4.50;99.90;;;;;;5051372;28;20052;-60
2022/01/25 15:00:49;;;;;;;55.92;28.92;;;4.60;99.90;;;;;;5051150;28;20052;-58
2022/01/25 15:03:15;;;;;;;56.25;29.88;;;4.70;99.90;;;;;;5050673;28;20119;-58
2022/01/25 15:05:41;;;;;;;55.38;29.35;;;4.70;99.90;;;;;;5050855;28;20032;-59
2022/01/25 15:08:06;;;;;;;56.90;28.70;;;4.70;99.90;;;;;;5051122;28;20025;-57
2022/01/25 15:10:33;;;;;;;61.03;31.27;;;4.70;99.90;;;;;;5054891;28;20029;-57
2022/01/25 15:13:00;;;;;;;55.45;30.60;;;4.60;99.90;;;;;;5054366;28;20493;-55
2022/01/25 15:15:44;;;;;;;59.13;29.30;;;4.60;99.90;;;;;;5054744;28;20029;-59
2022/01/25 15:18:14;;;;;;;68.07;31.77;;;4.50;99.90;;;;;;5053132;28;20083;-59
2022/01/25 15:20:40;;;;;;;61.05;30.80;;;4.40;99.90;;;;;;5054200;28;20048;-57
2022/01/25 15:23:05;;;;;;;57.58;30.20;;;4.40;99.90;;;;;;5065049;28;20490;-58
2022/01/25 15:25:37;;;;;;;64.90;31.90;;;4.60;99.90;;;;;;5073394;28;20036;-59
2022/01/25 15:28:36;;;;;;;65.28;32.13;;;4.70;99.90;;;;;;5074293;28;20037;-59
2022/01/25 15:31:02;;;;;;;61.33;31.80;;;4.60;99.90;;;;;;5074787;28;20021;-59
2022/01/25 15:33:28;;;;;;;61.40;32.55;;;4.50;99.90;;;;;;5074017;28;20028;-54
2022/01/25 15:35:56;;;;;;;59.97;32.03;;;4.50;99.90;;;;;;5055547;28;20052;-55
2022/01/25 15:38:22;;;;;;;57.67;31.83;;;4.60;99.90;;;;;;5053136;28;20040;-55
2022/01/25 15:40:47;;;;;;;62.58;32.60;;;4.80;99.90;;;;;;5056091;28;20029;-59
2022/01/25 15:43:13;;;;;;;59.63;31.95;;;4.70;99.90;;;;;;5054087;28;20531;-58
2022/01/25 15:48:34;;;;;;;63.17;32.65;;;4.70;99.90;;;;;;5045600;28;20041;-58
2022/01/25 15:51:00;;;;;;;66.53;33.00;;;4.30;99.90;;;;;;5054528;28;20044;-60
2022/01/25 15:53:27;;;;;;;67.22;36.13;;;4.30;99.90;;;;;;5053022;28;20033;-59
2022/01/25 15:55:53;;;;;;;70.60;32.40;;;4.40;99.90;;;;;;5054467;28;20037;-59
2022/01/25 15:58:19;;;;;;;66.50;34.90;;;4.40;99.90;;;;;;5053121;28;20523;-60
2022/01/25 16:00:48;;;;;;;66.80;33.58;;;4.50;99.90;;;;;;5054305;28;20501;-59
2022/01/25 16:03:19;;;;;;;63.10;32.15;;;4.80;99.90;;;;;;5053847;28;20041;-59
2022/01/25 16:05:47;;;;;;;66.25;32.53;;;4.70;99.90;;;;;;5054447;28;20488;-58